createdAt,value
2022-12-23T00:01:18.361Z,13.05
2022-12-23T00:03:20.404Z,13.04
2022-12-23T00:05:22.535Z,12.93
2022-12-23T00:07:24.511Z,13.06
2022-12-23T00:09:26.506Z,12.95
2022-12-23T00:11:29.081Z,12.89
2022-12-23T00:13:34.201Z,12.94
2022-12-23T00:15:36.270Z,12.86
2022-12-23T00:17:43.028Z,12.94
2022-12-23T00:19:45.148Z,13.02
2022-12-23T00:21:48.715Z,12.90
2022-12-23T00:23:51.875Z,12.78
2022-12-23T00:25:54.067Z,12.84
2022-12-23T00:27:59.113Z,12.79
2022-12-23T00:30:01.150Z,12.73
2022-12-23T00:32:03.250Z,12.77
2022-12-23T00:34:05.145Z,12.73
2022-12-23T00:36:13.488Z,12.66
2022-12-23T00:38:16.273Z,12.59
2022-12-23T00:40:21.535Z,12.70
2022-12-23T00:42:26.526Z,12.65
2022-12-23T00:44:28.591Z,12.68
2022-12-23T00:46:31.334Z,12.74
2022-12-23T00:48:36.688Z,12.63
2022-12-23T00:50:40.038Z,12.70
2022-12-23T00:52:41.954Z,12.71
2022-12-23T00:54:44.037Z,12.74
2022-12-23T00:56:46.118Z,12.70
2022-12-23T00:58:48.029Z,12.59
2022-12-23T01:00:53.136Z,12.64
2022-12-23T01:02:58.348Z,12.68
2022-12-23T01:05:03.489Z,12.59
2022-12-23T01:07:06.316Z,12.65
2022-12-23T01:09:08.267Z,12.55
2022-12-23T01:11:12.170Z,12.40
2022-12-23T01:13:14.119Z,12.43
2022-12-23T01:15:16.162Z,12.41
2022-12-23T01:17:18.216Z,12.43
2022-12-23T01:19:20.690Z,12.49
2022-12-23T01:21:22.686Z,12.33
2022-12-23T01:23:24.630Z,12.45
2022-12-23T01:25:26.577Z,12.39
2022-12-23T01:27:28.615Z,12.40
2022-12-23T01:29:30.571Z,12.41
2022-12-23T01:31:32.632Z,12.52
2022-12-23T01:33:34.616Z,12.41
2022-12-23T01:35:36.542Z,12.48
2022-12-23T01:37:38.473Z,12.48
2022-12-23T01:39:40.651Z,12.41
2022-12-23T01:41:45.827Z,12.50
2022-12-23T01:43:50.561Z,12.50
2022-12-23T01:45:52.624Z,12.48
2022-12-23T01:47:58.025Z,12.42
2022-12-23T01:50:07.261Z,12.49
2022-12-23T01:52:10.908Z,12.47
2022-12-23T01:54:12.846Z,12.36
2022-12-23T01:56:21.370Z,12.38
2022-12-23T01:58:30.647Z,12.41
2022-12-23T02:00:35.642Z,12.42
2022-12-23T02:02:44.233Z,12.28
2022-12-23T02:04:47.725Z,12.27
2022-12-23T02:06:54.215Z,12.26
2022-12-23T02:09:00.671Z,12.32
2022-12-23T02:11:08.987Z,12.25
2022-12-23T02:13:21.449Z,12.14
2022-12-23T02:15:35.552Z,12.27
2022-12-23T02:17:44.176Z,12.19
2022-12-23T02:20:02.382Z,12.26
2022-12-23T02:22:07.869Z,12.23
2022-12-23T02:24:14.417Z,12.23
2022-12-23T02:26:22.724Z,12.20
2022-12-23T02:28:28.304Z,12.22
2022-12-23T02:30:40.963Z,12.22
2022-12-23T02:32:48.785Z,12.25
2022-12-23T02:34:51.565Z,12.23
2022-12-23T02:37:00.667Z,12.20
2022-12-23T02:39:08.912Z,12.13
2022-12-23T02:41:23.231Z,12.21
2022-12-23T02:43:31.108Z,12.24
2022-12-23T02:45:40.672Z,12.21
2022-12-23T02:47:50.927Z,12.14
2022-12-23T02:49:58.089Z,12.16
2022-12-23T02:52:03.528Z,12.17
2022-12-23T02:54:12.028Z,12.04
2022-12-23T02:56:17.295Z,12.11
2022-12-23T02:58:23.270Z,12.07
2022-12-23T03:00:25.316Z,12.13
2022-12-23T03:02:27.789Z,12.15
2022-12-23T03:04:30.045Z,12.14
2022-12-23T03:06:39.555Z,12.11
2022-12-23T03:08:44.950Z,12.08
2022-12-23T03:10:48.767Z,12.12
2022-12-23T03:12:51.459Z,12.11
2022-12-23T03:14:56.315Z,12.10
2022-12-23T03:17:04.223Z,12.14
2022-12-23T03:19:12.540Z,12.04
2022-12-23T03:21:20.504Z,12.08
2022-12-23T03:23:30.744Z,12.10
2022-12-23T03:25:40.794Z,11.99
2022-12-23T03:27:51.861Z,12.02
2022-12-23T03:29:56.580Z,11.92
2022-12-23T03:32:01.710Z,12.04
2022-12-23T03:34:10.899Z,12.11
2022-12-23T03:36:22.595Z,12.13
2022-12-23T03:38:26.393Z,12.13
2022-12-23T03:40:36.335Z,12.00
2022-12-23T03:42:42.005Z,12.07
2022-12-23T03:45:19.080Z,11.99
2022-12-23T03:47:15.022Z,12.03
2022-12-23T03:49:27.849Z,12.07
2022-12-23T03:51:34.448Z,12.00
2022-12-23T03:53:42.531Z,11.95
2022-12-23T03:55:51.740Z,11.94
2022-12-23T03:58:00.061Z,11.93
2022-12-23T04:00:02.241Z,11.95
2022-12-23T04:02:09.016Z,11.83
2022-12-23T04:04:12.048Z,11.88
2022-12-23T04:06:17.897Z,11.94
2022-12-23T04:08:26.682Z,11.92
2022-12-23T04:10:29.083Z,11.91
2022-12-23T04:12:32.031Z,11.93
2022-12-23T04:14:37.039Z,11.88
2022-12-23T04:16:39.092Z,11.81
2022-12-23T04:18:41.059Z,11.82
2022-12-23T04:20:42.986Z,11.76
2022-12-23T04:22:45.123Z,11.78
2022-12-23T04:24:47.116Z,11.85
2022-12-23T04:26:49.107Z,11.87
2022-12-23T04:28:50.998Z,11.89
2022-12-23T04:30:52.980Z,11.91
2022-12-23T04:32:54.952Z,11.89
2022-12-23T04:34:56.853Z,11.80
2022-12-23T04:36:58.826Z,11.83
2022-12-23T04:39:00.775Z,11.75
2022-12-23T04:41:02.874Z,11.84
2022-12-23T04:43:04.753Z,11.86
2022-12-23T04:45:07.548Z,11.83
2022-12-23T04:47:09.556Z,11.87
2022-12-23T04:49:11.721Z,11.71
2022-12-23T04:51:13.702Z,11.66
2022-12-23T04:53:15.762Z,11.68
2022-12-23T04:55:17.776Z,11.66
2022-12-23T04:57:19.717Z,11.74
2022-12-23T04:59:21.683Z,11.71
2022-12-23T05:01:23.745Z,11.83
2022-12-23T05:03:26.031Z,11.87
2022-12-23T05:05:28.010Z,11.84
2022-12-23T05:07:29.962Z,11.83
2022-12-23T05:09:32.073Z,11.88
2022-12-23T05:11:38.554Z,11.80
2022-12-23T05:13:44.025Z,11.77
2022-12-23T05:15:50.141Z,11.87
2022-12-23T05:17:52.205Z,11.89
2022-12-23T05:19:54.268Z,11.94
2022-12-23T05:21:56.268Z,11.94
2022-12-23T05:23:58.345Z,11.96
2022-12-23T05:26:00.543Z,12.00
2022-12-23T05:28:02.942Z,11.98
2022-12-23T05:30:05.688Z,11.83
2022-12-23T05:32:07.755Z,11.91
2022-12-23T05:34:09.908Z,11.88
2022-12-23T05:36:13.013Z,11.85
2022-12-23T05:38:14.988Z,11.84
2022-12-23T05:40:23.153Z,11.84
2022-12-23T05:42:25.545Z,11.83
2022-12-23T05:44:27.503Z,11.85
2022-12-23T05:46:29.763Z,11.80
2022-12-23T05:48:31.977Z,11.92
2022-12-23T05:50:34.284Z,11.91
2022-12-23T05:52:36.257Z,11.91
2022-12-23T05:54:38.190Z,11.90
2022-12-23T05:56:40.107Z,11.95
2022-12-23T05:58:43.081Z,11.90
2022-12-23T06:00:45.122Z,11.85
2022-12-23T06:02:53.632Z,11.87
2022-12-23T06:04:56.325Z,11.86
2022-12-23T06:06:58.290Z,11.84
2022-12-23T06:09:00.491Z,11.87
2022-12-23T06:11:05.275Z,11.83
2022-12-23T06:13:07.341Z,11.81
2022-12-23T06:15:10.043Z,11.76
2022-12-23T06:17:11.968Z,11.74
2022-12-23T06:19:13.960Z,11.70
2022-12-23T06:21:16.033Z,11.56
2022-12-23T06:23:18.080Z,11.50
2022-12-23T06:25:20.143Z,11.54
2022-12-23T06:27:22.144Z,11.49
2022-12-23T06:29:24.429Z,11.56
2022-12-23T06:31:26.375Z,11.54
2022-12-23T06:33:28.314Z,11.46
2022-12-23T06:35:30.524Z,11.45
2022-12-23T06:37:32.486Z,11.37
2022-12-23T06:39:34.624Z,11.41
2022-12-23T06:41:36.873Z,11.49
2022-12-23T06:43:39.081Z,11.38
2022-12-23T06:45:41.618Z,11.43
2022-12-23T06:47:43.661Z,11.46
2022-12-23T06:49:45.625Z,11.48
2022-12-23T06:51:47.643Z,11.53
2022-12-23T06:53:49.639Z,11.44
2022-12-23T06:55:59.906Z,11.41
2022-12-23T06:58:02.038Z,11.45
2022-12-23T07:00:05.796Z,11.46
2022-12-23T07:02:09.645Z,11.47
2022-12-23T07:04:11.708Z,11.43
2022-12-23T07:06:14.018Z,11.45
2022-12-23T07:08:16.492Z,11.48
2022-12-23T07:10:18.411Z,11.53
2022-12-23T07:12:20.424Z,11.55
2022-12-23T07:14:22.434Z,11.52
2022-12-23T07:16:24.400Z,11.54
2022-12-23T07:18:26.596Z,11.60
2022-12-23T07:20:28.586Z,11.52
2022-12-23T07:22:30.911Z,11.53
2022-12-23T07:24:32.885Z,11.39
2022-12-23T07:26:34.855Z,11.35
2022-12-23T07:28:36.815Z,11.33
2022-12-23T07:30:38.844Z,11.31
2022-12-23T07:32:40.934Z,11.28
2022-12-23T07:34:42.908Z,11.31
2022-12-23T07:36:44.897Z,11.22
2022-12-23T07:38:51.456Z,11.29
2022-12-23T07:40:53.443Z,11.23
2022-12-23T07:42:58.057Z,11.26
2022-12-23T07:44:59.985Z,11.19
2022-12-23T07:47:02.163Z,11.19
2022-12-23T07:49:04.164Z,11.16
2022-12-23T07:51:06.633Z,11.23
2022-12-23T07:53:08.993Z,11.26
2022-12-23T07:55:10.931Z,11.22
2022-12-23T07:57:12.895Z,11.24
2022-12-23T07:59:14.977Z,11.24
2022-12-23T08:01:17.928Z,11.25
2022-12-23T08:03:20.091Z,11.25
2022-12-23T08:05:22.455Z,11.22
2022-12-23T08:07:24.504Z,11.19
2022-12-23T08:09:26.499Z,11.28
2022-12-23T08:11:28.653Z,11.28
2022-12-23T08:13:32.299Z,11.31
2022-12-23T08:15:34.321Z,11.29
2022-12-23T08:17:36.337Z,11.35
2022-12-23T08:19:38.339Z,11.32
2022-12-23T08:21:40.272Z,11.31
2022-12-23T08:23:43.836Z,11.22
2022-12-23T08:25:45.823Z,11.33
2022-12-23T08:27:47.908Z,11.34
2022-12-23T08:29:49.981Z,11.16
2022-12-23T08:31:52.033Z,11.12
2022-12-23T08:33:57.012Z,11.04
2022-12-23T08:35:59.230Z,11.02
2022-12-23T08:38:01.235Z,11.08
2022-12-23T08:40:03.626Z,11.11
2022-12-23T08:42:05.801Z,11.00
2022-12-23T08:44:08.623Z,11.03
2022-12-23T08:46:11.160Z,11.15
2022-12-23T08:48:13.965Z,11.17
2022-12-23T08:50:16.097Z,11.24
2022-12-23T08:52:18.039Z,11.15
2022-12-23T08:54:20.674Z,11.24
2022-12-23T08:56:24.331Z,11.31
2022-12-23T08:58:26.402Z,11.36
2022-12-23T09:00:28.314Z,11.39
2022-12-23T09:02:30.518Z,11.40
2022-12-23T09:04:32.870Z,11.34
2022-12-23T09:06:40.881Z,11.22
2022-12-23T09:08:43.542Z,11.15
2022-12-23T09:10:45.547Z,11.24
2022-12-23T09:12:47.889Z,11.31
2022-12-23T09:14:49.846Z,11.37
2022-12-23T09:16:52.666Z,11.42
2022-12-23T09:18:55.050Z,11.41
2022-12-23T09:21:00.064Z,11.37
2022-12-23T09:23:02.375Z,11.44
2022-12-23T09:25:05.468Z,11.51
2022-12-23T09:27:07.537Z,11.47
2022-12-23T09:29:09.566Z,11.40
2022-12-23T09:31:13.592Z,11.35
2022-12-23T09:33:15.711Z,11.32
2022-12-23T09:35:17.934Z,11.33
2022-12-23T09:37:20.465Z,11.25
2022-12-23T09:39:22.607Z,11.32
2022-12-23T09:41:30.856Z,11.40
2022-12-23T09:43:36.383Z,11.43
2022-12-23T09:45:44.609Z,11.47
2022-12-23T09:47:47.074Z,11.50
2022-12-23T09:49:54.290Z,11.49
2022-12-23T09:52:02.100Z,11.50
2022-12-23T09:54:17.426Z,11.48
2022-12-23T09:56:28.091Z,11.52
2022-12-23T09:58:37.127Z,11.54
2022-12-23T10:00:44.200Z,11.46
2022-12-23T10:02:48.398Z,11.35
2022-12-23T10:04:56.875Z,11.44
2022-12-23T10:07:03.256Z,11.35
2022-12-23T10:09:09.816Z,11.41
2022-12-23T10:11:17.354Z,11.41
2022-12-23T10:13:26.528Z,11.47
2022-12-23T10:15:33.028Z,11.46
2022-12-23T10:17:41.924Z,11.46
2022-12-23T10:19:47.709Z,11.43
2022-12-23T10:21:55.425Z,11.44
2022-12-23T10:24:01.326Z,11.50
2022-12-23T10:26:12.624Z,11.52
2022-12-23T10:28:14.651Z,11.58
2022-12-23T10:32:49.663Z,11.44
2022-12-23T10:34:58.111Z,11.46
2022-12-23T10:37:06.055Z,11.44
2022-12-23T10:39:18.926Z,11.48
2022-12-23T10:41:38.409Z,11.55
2022-12-23T10:43:52.447Z,11.62
2022-12-23T10:46:08.039Z,11.67
2022-12-23T10:48:14.442Z,11.59
2022-12-23T10:50:22.902Z,11.52
2022-12-23T10:52:28.801Z,11.45
2022-12-23T10:54:35.242Z,11.51
2022-12-23T10:56:37.665Z,11.64
2022-12-23T10:58:43.946Z,11.70
2022-12-23T11:00:53.565Z,11.78
2022-12-23T11:02:59.197Z,11.69
2022-12-23T11:05:01.311Z,11.56
2022-12-23T11:07:41.938Z,11.68
2022-12-23T11:09:36.908Z,11.74
2022-12-23T11:11:45.127Z,11.81
2022-12-23T11:13:47.917Z,11.78
2022-12-23T11:15:50.269Z,11.87
2022-12-23T11:17:58.898Z,11.88
2022-12-23T11:20:07.308Z,11.94
2022-12-23T11:22:23.748Z,11.92
2022-12-23T11:24:28.533Z,12.02
2022-12-23T11:26:30.973Z,12.05
2022-12-23T11:28:36.563Z,12.05
2022-12-23T11:30:56.196Z,12.06
2022-12-23T11:32:59.529Z,12.07
2022-12-23T11:35:01.623Z,12.16
2022-12-23T11:37:07.571Z,12.18
2022-12-23T11:39:12.648Z,12.24
2022-12-23T11:41:21.225Z,12.30
2022-12-23T11:43:26.457Z,12.34
2022-12-23T11:45:33.480Z,12.34
2022-12-23T11:47:41.533Z,12.37
2022-12-23T11:49:49.721Z,12.41
2022-12-23T11:51:58.185Z,12.41
2022-12-23T11:54:02.432Z,12.47
2022-12-23T11:56:08.587Z,12.53
2022-12-23T11:58:18.688Z,12.57
2022-12-23T12:00:26.635Z,12.57
2022-12-23T12:02:32.543Z,12.64
2022-12-23T12:04:36.190Z,12.73
2022-12-23T12:06:51.135Z,12.80
2022-12-23T12:08:56.315Z,12.78
2022-12-23T12:11:05.360Z,12.88
2022-12-23T12:13:22.114Z,12.92
2022-12-23T12:15:30.459Z,13.05
2022-12-23T12:17:38.688Z,13.16
2022-12-23T12:19:50.748Z,13.19
2022-12-23T12:21:59.606Z,13.27
2022-12-23T12:24:19.025Z,13.32
2022-12-23T12:26:28.789Z,13.44
2022-12-23T12:28:39.778Z,13.42
2022-12-23T12:30:51.212Z,13.48
2022-12-23T12:33:01.102Z,13.62
2022-12-23T12:35:11.930Z,13.63
2022-12-23T12:37:16.898Z,13.79
2022-12-23T12:39:29.111Z,13.82
2022-12-23T12:41:34.746Z,13.83
2022-12-23T12:43:44.867Z,13.89
2022-12-23T12:45:54.137Z,13.92
2022-12-23T12:48:12.813Z,13.75
2022-12-23T12:50:24.641Z,13.92
2022-12-23T12:52:28.307Z,14.01
2022-12-23T12:54:40.272Z,13.99
2022-12-23T12:56:50.240Z,14.14
2022-12-23T12:58:52.438Z,14.22
2022-12-23T13:00:58.212Z,14.22
2022-12-23T13:03:06.641Z,14.21
2022-12-23T13:05:14.788Z,14.31
2022-12-23T13:07:23.070Z,14.38
2022-12-23T13:09:31.392Z,14.44
2022-12-23T13:11:38.027Z,14.51
2022-12-23T13:13:43.489Z,14.59
2022-12-23T13:15:47.557Z,14.49
2022-12-23T13:17:58.889Z,14.61
2022-12-23T13:20:10.458Z,14.64
2022-12-23T13:22:18.147Z,14.70
2022-12-23T13:24:24.653Z,14.84
2022-12-23T13:26:36.450Z,14.93
2022-12-23T13:28:48.848Z,14.89
2022-12-23T13:31:06.441Z,14.78
2022-12-23T13:33:18.879Z,14.80
2022-12-23T13:35:25.384Z,14.78
2022-12-23T13:37:33.547Z,14.73
2022-12-23T13:39:45.881Z,14.68
2022-12-23T13:41:52.173Z,14.82
2022-12-23T13:43:59.656Z,14.78
2022-12-23T13:46:09.234Z,14.80
2022-12-23T13:48:15.895Z,14.78
2022-12-23T13:50:34.320Z,14.82
2022-12-23T13:52:44.166Z,14.66
2022-12-23T13:54:49.783Z,14.83
2022-12-23T13:57:08.538Z,14.75
2022-12-23T13:59:14.661Z,14.71
2022-12-23T14:01:18.594Z,14.72
2022-12-23T14:03:25.524Z,14.66
2022-12-23T14:05:31.026Z,14.70
2022-12-23T14:07:34.401Z,14.66
2022-12-23T14:09:38.748Z,14.66
2022-12-23T14:11:41.177Z,14.64
2022-12-23T14:13:46.174Z,14.63
2022-12-23T14:15:51.751Z,14.63
2022-12-23T14:18:02.554Z,14.59
2022-12-23T14:20:12.632Z,14.66
2022-12-23T14:22:18.107Z,14.59
2022-12-23T14:24:26.470Z,14.46
2022-12-23T14:26:43.077Z,14.55
2022-12-23T14:28:52.345Z,14.53
2022-12-23T14:30:54.966Z,14.55
2022-12-23T14:33:02.492Z,14.58
2022-12-23T14:35:16.077Z,14.62
2022-12-23T14:37:21.987Z,14.62
2022-12-23T14:39:31.528Z,14.61
2022-12-23T14:41:39.010Z,14.61
2022-12-23T14:43:44.727Z,14.57
2022-12-23T14:45:47.046Z,14.49
2022-12-23T14:47:49.432Z,14.30
2022-12-23T14:49:51.852Z,14.35
2022-12-23T14:51:54.143Z,14.35
2022-12-23T14:53:59.772Z,14.37
2022-12-23T14:56:08.096Z,14.28
2022-12-23T14:58:11.983Z,14.16
2022-12-23T15:00:14.788Z,14.12
2022-12-23T15:02:25.400Z,14.21
2022-12-23T15:04:44.464Z,14.14
2022-12-23T15:06:51.354Z,14.22
2022-12-23T15:08:55.950Z,14.25
2022-12-23T15:10:58.417Z,14.26
2022-12-23T15:13:04.879Z,14.13
2022-12-23T15:15:15.330Z,14.03
2022-12-23T15:17:26.947Z,13.99
2022-12-23T15:19:29.022Z,13.93
2022-12-23T15:21:36.373Z,13.92
2022-12-23T15:23:39.017Z,13.86
2022-12-23T15:25:45.006Z,13.91
2022-12-23T15:27:47.663Z,13.75
2022-12-23T15:29:53.725Z,13.84
2022-12-23T15:31:58.784Z,13.39
2022-12-23T15:34:13.330Z,13.52
2022-12-23T15:36:27.102Z,13.63
2022-12-23T15:38:32.073Z,13.56
2022-12-23T15:40:35.921Z,13.33
2022-12-23T15:42:39.037Z,13.42
2022-12-23T15:44:41.060Z,13.45
2022-12-23T15:46:44.628Z,13.23
2022-12-23T15:48:48.096Z,13.35
2022-12-23T15:50:53.473Z,13.26
2022-12-23T15:53:00.279Z,13.34
2022-12-23T15:55:14.289Z,13.13
2022-12-23T15:57:20.702Z,13.18
2022-12-23T15:59:27.773Z,13.24
2022-12-23T16:01:38.510Z,13.33
2022-12-23T16:03:42.895Z,13.41
2022-12-23T16:05:44.965Z,13.31
2022-12-23T16:07:46.758Z,13.13
2022-12-23T16:09:54.518Z,13.31
2022-12-23T16:11:58.386Z,13.15
2022-12-23T16:14:20.302Z,13.28
2022-12-23T16:16:34.584Z,13.23
2022-12-23T16:18:47.192Z,13.23
2022-12-23T16:20:53.838Z,13.36
2022-12-23T16:23:00.749Z,13.37
2022-12-23T16:25:20.141Z,13.33
2022-12-23T16:27:33.435Z,13.31
2022-12-23T16:29:35.277Z,13.44
2022-12-23T16:31:37.874Z,13.48
2022-12-23T16:33:44.788Z,13.50
2022-12-23T16:35:46.741Z,13.49
2022-12-23T16:37:51.273Z,13.33
2022-12-23T16:39:53.354Z,13.39
2022-12-23T16:41:55.151Z,13.24
2022-12-23T16:43:56.861Z,13.26
2022-12-23T16:45:59.204Z,13.33
2022-12-23T16:48:02.655Z,13.21
2022-12-23T16:50:05.445Z,13.30
2022-12-23T16:52:09.306Z,13.35
2022-12-23T16:54:17.115Z,13.27
2022-12-23T16:56:21.202Z,13.25
2022-12-23T16:58:23.000Z,13.22
2022-12-23T17:00:25.071Z,13.22
2022-12-23T17:02:28.863Z,13.17
2022-12-23T17:04:30.695Z,13.16
2022-12-23T17:06:32.755Z,13.07
2022-12-23T17:08:35.566Z,13.08
2022-12-23T17:10:39.641Z,12.89
2022-12-23T17:12:43.194Z,13.10
2022-12-23T17:14:44.933Z,12.99
2022-12-23T17:16:47.871Z,12.86
2022-12-23T17:18:50.927Z,12.88
2022-12-23T17:20:52.760Z,12.78
2022-12-23T17:22:58.555Z,12.83
2022-12-23T17:25:00.317Z,12.79
2022-12-23T17:27:02.104Z,12.79
2022-12-23T17:29:05.164Z,12.89
2022-12-23T17:31:13.929Z,12.92
2022-12-23T17:33:18.677Z,12.99
2022-12-23T17:35:21.004Z,12.95
2022-12-23T17:37:23.004Z,12.81
2022-12-23T17:39:24.720Z,13.01
2022-12-23T17:41:31.011Z,13.05
2022-12-23T17:43:32.725Z,12.94
2022-12-23T17:45:34.612Z,12.95
2022-12-23T17:47:36.360Z,12.72
2022-12-23T17:49:38.028Z,12.74
2022-12-23T17:51:40.528Z,12.64
2022-12-23T17:53:42.720Z,12.78
2022-12-23T17:55:44.728Z,12.81
2022-12-23T17:57:46.921Z,12.81
2022-12-23T17:59:49.760Z,12.77
2022-12-23T18:01:51.784Z,12.87
2022-12-23T18:03:56.156Z,12.80
2022-12-23T18:06:01.960Z,12.86
2022-12-23T18:08:04.139Z,12.76
2022-12-23T18:10:06.902Z,12.83
2022-12-23T18:12:24.935Z,12.86
2022-12-23T18:14:28.338Z,12.88
2022-12-23T18:16:30.477Z,12.88
2022-12-23T18:18:43.489Z,12.80
2022-12-23T18:20:51.018Z,12.79
2022-12-23T18:22:54.907Z,12.81
2022-12-23T18:24:59.577Z,12.84
2022-12-23T18:27:01.992Z,12.84
2022-12-23T18:29:03.772Z,12.76
2022-12-23T18:31:05.934Z,12.74
2022-12-23T18:33:11.335Z,12.66
2022-12-23T18:35:22.714Z,12.79
2022-12-23T18:37:24.624Z,12.90
2022-12-23T18:39:26.300Z,12.79
2022-12-23T18:41:28.327Z,12.90
2022-12-23T18:43:30.095Z,12.82
2022-12-23T18:45:42.036Z,12.82
2022-12-23T18:47:43.967Z,12.85
2022-12-23T18:49:45.750Z,12.87
2022-12-23T18:51:47.915Z,12.66
2022-12-23T18:53:49.658Z,12.70
2022-12-23T18:55:52.296Z,12.80
2022-12-23T18:57:54.492Z,12.68
2022-12-23T18:59:56.264Z,12.69
2022-12-23T19:01:58.579Z,12.71
2022-12-23T19:04:00.560Z,12.68
2022-12-23T19:06:07.075Z,12.64
2022-12-23T19:08:10.190Z,12.55
2022-12-23T19:10:16.912Z,12.61
2022-12-23T19:12:19.516Z,12.67
2022-12-23T19:14:21.350Z,12.62
2022-12-23T19:16:23.276Z,12.61
2022-12-23T19:18:25.050Z,12.64
2022-12-23T19:20:26.774Z,12.58
2022-12-23T19:22:28.509Z,12.63
2022-12-23T19:24:30.601Z,12.62
2022-12-23T19:26:32.429Z,12.55
2022-12-23T19:28:34.315Z,12.60
2022-12-23T19:30:36.902Z,12.61
2022-12-23T19:32:38.755Z,12.56
2022-12-23T19:34:40.505Z,12.57
2022-12-23T19:36:42.309Z,12.47
2022-12-23T19:38:44.206Z,12.32
2022-12-23T19:40:45.936Z,12.39
2022-12-23T19:42:47.696Z,12.33
2022-12-23T19:44:49.461Z,12.41
2022-12-23T19:46:51.306Z,12.38
2022-12-23T19:48:53.775Z,12.46
2022-12-23T19:50:58.696Z,12.33
2022-12-23T19:53:00.472Z,12.36
2022-12-23T19:55:02.474Z,12.37
2022-12-23T19:57:04.314Z,12.37
2022-12-23T19:59:06.009Z,12.28
2022-12-23T20:01:10.161Z,12.34
2022-12-23T20:03:12.248Z,12.29
2022-12-23T20:05:14.061Z,12.31
2022-12-23T20:07:16.160Z,12.19
2022-12-23T20:09:18.270Z,12.19
2022-12-23T20:11:23.787Z,12.23
2022-12-23T20:13:25.481Z,12.20
2022-12-23T20:15:27.287Z,12.19
2022-12-23T20:17:29.070Z,12.21
2022-12-23T20:19:30.799Z,12.21
2022-12-23T20:21:34.173Z,12.19
2022-12-23T20:23:35.916Z,12.20
2022-12-23T20:25:37.749Z,12.04
2022-12-23T20:27:39.515Z,12.02
2022-12-23T20:29:41.196Z,12.12
2022-12-23T20:31:43.428Z,12.04
2022-12-23T20:33:46.225Z,12.09
2022-12-23T20:35:47.890Z,12.19
2022-12-23T20:37:49.712Z,12.09
2022-12-23T20:39:51.568Z,12.00
2022-12-23T20:41:53.335Z,12.12
2022-12-23T20:46:18.105Z,12.04
2022-12-23T20:48:21.917Z,12.12
2022-12-23T20:50:23.854Z,12.10
2022-12-23T20:52:25.769Z,12.18
2022-12-23T20:54:32.659Z,12.16
2022-12-23T20:56:35.031Z,12.10
2022-12-23T20:58:47.454Z,12.15
2022-12-23T21:00:50.392Z,12.10
2022-12-23T21:02:52.366Z,12.13
2022-12-23T21:04:54.131Z,12.11
2022-12-23T21:06:56.014Z,12.09
2022-12-23T21:08:59.980Z,12.09
2022-12-23T21:11:02.722Z,12.03
2022-12-23T21:13:04.631Z,12.04
2022-12-23T21:15:07.213Z,11.99
2022-12-23T21:17:09.141Z,12.06
2022-12-23T21:19:17.580Z,12.04
2022-12-23T21:21:23.683Z,11.98
2022-12-23T21:23:26.291Z,11.90
2022-12-23T21:25:28.217Z,11.92
2022-12-23T21:27:30.118Z,11.91
2022-12-23T21:29:32.144Z,11.88
2022-12-23T21:31:36.334Z,11.96
2022-12-23T21:33:40.332Z,11.99
2022-12-23T21:35:42.088Z,12.00
2022-12-23T21:37:43.901Z,11.95
2022-12-23T21:39:45.777Z,11.90
2022-12-23T21:41:49.242Z,11.94
2022-12-23T21:43:52.156Z,11.98
2022-12-23T21:46:06.939Z,11.99
2022-12-23T21:48:08.975Z,11.93
2022-12-23T21:50:11.022Z,11.99
2022-12-23T21:52:12.792Z,11.90
2022-12-23T21:54:14.656Z,11.91
2022-12-23T21:56:20.644Z,11.91
2022-12-23T21:58:22.571Z,11.98
2022-12-23T22:00:24.518Z,12.01
2022-12-23T22:02:26.569Z,11.99
2022-12-23T22:04:28.533Z,11.86
2022-12-23T22:06:36.819Z,11.91
2022-12-23T22:08:39.290Z,11.84
2022-12-23T22:10:41.121Z,11.84
2022-12-23T22:12:42.935Z,11.91
2022-12-23T22:14:45.591Z,11.90
2022-12-23T22:16:47.653Z,11.88
2022-12-23T22:18:50.899Z,11.89
2022-12-23T22:20:52.782Z,11.88
2022-12-23T22:22:54.878Z,11.88
2022-12-23T22:24:56.672Z,11.78
2022-12-23T22:26:58.449Z,11.82
2022-12-23T22:29:02.158Z,11.80
2022-12-23T22:31:13.940Z,11.87
2022-12-23T22:33:16.008Z,11.84
2022-12-23T22:35:17.913Z,11.75
2022-12-23T22:37:19.718Z,11.77
2022-12-23T22:39:22.159Z,11.77
2022-12-23T22:41:25.802Z,11.79
2022-12-23T22:43:27.690Z,11.82
2022-12-23T22:45:29.611Z,11.73
2022-12-23T22:47:32.201Z,11.81
2022-12-23T22:49:34.111Z,11.80
2022-12-23T22:51:35.999Z,11.79
2022-12-23T22:53:38.008Z,11.73
2022-12-23T22:55:40.000Z,11.74
2022-12-23T22:57:41.941Z,11.64
2022-12-23T22:59:44.017Z,11.63
2022-12-23T23:01:46.064Z,11.67
2022-12-23T23:03:51.097Z,11.75
2022-12-23T23:06:06.106Z,11.75
2022-12-23T23:08:07.999Z,11.74
2022-12-23T23:10:10.739Z,11.68
2022-12-23T23:12:12.642Z,11.64
2022-12-23T23:14:14.732Z,11.62
2022-12-23T23:16:16.941Z,11.71
2022-12-23T23:18:19.141Z,11.69
2022-12-23T23:20:21.099Z,11.74
2022-12-23T23:22:24.635Z,11.52
2022-12-23T23:24:31.231Z,11.62
2022-12-23T23:26:33.413Z,11.64
2022-12-23T23:28:35.379Z,11.64
2022-12-23T23:30:37.733Z,11.56
2022-12-23T23:32:39.765Z,11.54
2022-12-23T23:34:42.389Z,11.50
2022-12-23T23:36:44.288Z,11.52
2022-12-23T23:38:46.150Z,11.51
2022-12-23T23:40:49.120Z,11.48
2022-12-23T23:42:51.018Z,11.48
2022-12-23T23:44:52.841Z,11.49
2022-12-23T23:46:54.739Z,11.52
2022-12-23T23:48:56.625Z,11.34
2022-12-23T23:51:06.735Z,11.41
2022-12-23T23:53:10.391Z,11.35
2022-12-23T23:55:12.647Z,11.35
2022-12-23T23:57:16.650Z,11.28
2022-12-23T23:59:18.559Z,11.23
